Time;durP1;ratioP1;P1;durP2;ratioP2;P2;SDS_P1;SDS_P2;PMS_P1;PMS_P2;Temp;Humidity;BMP_temperature;BMP_pressure;BME280_temperature;BME280_humidity;BME280_pressure;Samples;Min_cycle;Max_cycle;Signal;HPM_P1;HPM_P2
2021/01/02 07:08:58;;;;;;;14.30;8.90;;;;;;;1.71;79.23;100074.36;120016;1144;24521;-63
2021/01/02 07:11:33;;;;;;;16.35;8.35;;;;;;;1.73;78.29;100082.23;124535;1144;22768;-66
2021/01/02 07:14:08;;;;;;;13.87;8.37;;;;;;;1.74;78.32;100079.33;124312;1143;23627;-65
2021/01/02 07:16:50;;;;;;;18.70;9.30;;;;;;;1.78;78.21;100087.86;124669;1141;23677;-65
2021/01/02 07:19:24;;;;;;;15.93;9.23;;;;;;;1.82;78.24;100086.47;124476;1144;22694;-65
2021/01/02 07:22:21;;;;;;;17.73;9.37;;;;;;;1.88;79.01;100096.45;124627;1143;22706;-65
2021/01/02 07:24:53;;;;;;;15.95;8.35;;;;;;;1.90;78.42;100102.47;124488;1143;22923;-64
2021/01/02 07:27:30;;;;;;;14.63;8.67;;;;;;;1.93;78.82;100095.89;124630;1144;22784;-64
2021/01/02 07:30:02;;;;;;;;;;;;;;;1.97;78.56;100094.50;124744;1143;22697;-64
2021/01/02 07:32:30;;;;;;;15.20;8.00;;;;;;;2.00;78.83;100107.57;124724;1143;21473;-65
2021/01/02 07:34:59;;;;;;;13.55;8.30;;;;;;;2.02;78.44;100106.34;124500;1144;24060;-64
2021/01/02 07:37:32;;;;;;;28.25;14.95;;;;;;;2.03;78.56;100109.86;120285;1144;23000;-66
2021/01/02 07:40:13;;;;;;;19.45;10.75;;;;;;;2.06;77.76;100114.86;124434;1144;22748;-65
2021/01/02 07:42:51;;;;;;;16.05;9.05;;;;;;;2.10;78.28;100116.16;124446;1142;22698;-64
2021/01/02 07:45:22;;;;;;;17.17;8.87;;;;;;;2.13;78.54;100121.16;124693;1144;23472;-64
2021/01/02 07:47:59;;;;;;;15.63;8.63;;;;;;;2.16;78.27;100122.65;124718;1144;22708;-64
2021/01/02 07:50:27;;;;;;;14.90;7.62;;;;;;;2.20;77.83;100132.81;124555;1142;22773;-65
2021/01/02 07:52:59;;;;;;;19.37;11.50;;;;;;;2.25;77.81;100135.78;124626;1143;22692;-65
2021/01/02 07:55:26;;;;;;;17.17;9.30;;;;;;;2.27;78.01;100141.80;124393;1144;22713;-66
2021/01/02 07:57:54;;;;;;;14.53;8.63;;;;;;;2.30;77.54;100144.12;124477;1145;22694;-62
2021/01/02 08:00:22;;;;;;;17.80;10.60;;;;;;;2.33;78.20;100145.57;124690;1143;23373;-64
2021/01/02 08:02:49;;;;;;;16.23;9.93;;;;;;;2.32;77.58;100142.05;124799;1144;22656;-63
2021/01/02 08:05:21;;;;;;;18.70;12.00;;;;;;;2.33;77.48;100142.88;124193;1144;22708;-64
2021/01/02 08:08:07;;;;;;;20.90;11.90;;;;;;;2.36;77.66;100142.51;124744;1143;22754;-63
2021/01/02 08:10:36;;;;;;;18.27;11.00;;;;;;;2.40;77.67;100144.64;124648;1143;22686;-63
2021/01/02 08:13:03;;;;;;;23.40;13.65;;;;;;;2.43;77.67;100148.81;124633;1143;23649;-65
2021/01/02 08:15:31;;;;;;;18.05;10.80;;;;;;;2.47;77.94;100152.77;124593;1143;22777;-64
2021/01/02 08:18:05;;;;;;;17.63;10.50;;;;;;;2.52;77.95;100157.58;124617;1144;22694;-64
2021/01/02 08:20:32;;;;;;;19.63;11.30;;;;;;;2.56;77.16;100161.56;124616;1144;22733;-65
2021/01/02 08:23:07;;;;;;;22.00;11.50;;;;;;;2.60;77.02;100160.17;124552;1143;23605;-64
2021/01/02 08:25:34;;;;;;;22.35;12.50;;;;;;;2.62;77.25;100171.55;124594;1143;22823;-61
2021/01/02 08:28:02;;;;;;;19.03;10.97;;;;;;;2.67;77.99;100169.13;124722;1142;23435;-62
2021/01/02 08:30:29;;;;;;;21.13;12.77;;;;;;;2.71;77.82;100167.73;124515;1143;22957;-62
2021/01/02 08:32:59;;;;;;;17.05;10.40;;;;;;;2.73;76.98;100174.59;124633;1143;22760;-62
2021/01/02 08:35:27;;;;;;;18.50;11.25;;;;;;;2.79;77.47;100187.27;124181;1142;22781;-61
2021/01/02 08:38:07;;;;;;;21.30;11.77;;;;;;;2.82;77.38;100181.50;124486;1144;22693;-60
2021/01/02 08:40:41;;;;;;;19.87;10.50;;;;;;;2.89;77.55;100181.55;124792;1143;22789;-61
2021/01/02 08:43:21;;;;;;;19.40;11.60;;;;;;;2.93;77.63;100180.15;124572;1143;22768;-61
2021/01/02 08:45:48;;;;;;;18.57;10.63;;;;;;;2.99;77.72;100178.56;124720;1144;22716;-61
2021/01/02 08:48:17;;;;;;;23.15;11.70;;;;;;;3.04;77.12;100184.17;124331;1144;22797;-61
2021/01/02 08:50:44;;;;;;;15.50;9.20;;;;;;;3.08;77.33;100180.08;124887;1142;22687;-60
2021/01/02 08:53:27;;;;;;;14.10;8.30;;;;;;;3.10;77.10;100176.17;124399;1143;24813;-61
2021/01/02 08:55:54;;;;;;;17.90;10.50;;;;;;;3.11;77.54;100177.84;124532;1143;22722;-61
2021/01/02 08:58:32;;;;;;;17.95;9.35;;;;;;;3.12;77.51;100179.52;124548;1143;22692;-61
2021/01/02 09:00:59;;;;;;;15.48;9.30;;;;;;;3.14;76.78;100185.54;124639;1142;22771;-61
2021/01/02 09:03:26;;;;;;;16.33;10.27;;;;;;;3.16;77.02;100188.88;124536;1142;22701;-60
2021/01/02 09:05:54;;;;;;;19.45;11.40;;;;;;;3.20;77.00;100184.75;124707;1142;22786;-60
2021/01/02 09:08:21;;;;;;;15.00;8.73;;;;;;;3.23;77.20;100182.70;124451;1144;22785;-60
2021/01/02 09:10:55;;;;;;;16.63;10.07;;;;;;;3.27;76.74;100178.59;124735;1142;22728;-60
2021/01/02 09:13:24;;;;;;;16.10;9.55;;;;;;;3.28;76.47;100180.27;124347;1142;22680;-60
2021/01/02 09:16:03;;;;;;;23.10;9.40;;;;;;;3.27;76.41;100184.81;124757;1144;23659;-60
2021/01/02 09:18:30;;;;;;;21.25;11.25;;;;;;;3.25;77.05;100186.87;124320;1144;24362;-61
2021/01/02 09:21:06;;;;;;;22.95;12.60;;;;;;;3.28;76.34;100182.95;124736;1143;25623;-61
2021/01/02 09:23:34;;;;;;;22.60;11.85;;;;;;;3.30;76.72;100188.98;124601;1142;22872;-61
2021/01/02 09:26:02;;;;;;;20.50;12.20;;;;;;;3.33;76.73;100189.41;124799;1143;22695;-60
2021/01/02 09:28:40;;;;;;;20.20;11.85;;;;;;;3.38;76.82;100181.59;124514;1143;22712;-60
2021/01/02 09:31:07;;;;;;;18.37;10.70;;;;;;;3.43;76.76;100184.53;124697;1144;22710;-60
2021/01/02 09:33:34;;;;;;;17.00;9.60;;;;;;;3.49;76.81;100185.59;124441;1142;22753;-60
2021/01/02 09:36:03;;;;;;;22.25;12.50;;;;;;;3.54;76.84;100177.77;124737;1144;22712;-60
2021/01/02 09:38:30;;;;;;;14.30;8.05;;;;;;;3.61;76.88;100177.83;124662;1143;22699;-60
2021/01/02 09:40:57;;;;;;;16.65;9.00;;;;;;;3.66;76.53;100195.05;124630;1144;22763;-60
2021/01/02 09:43:24;;;;;;;15.43;9.17;;;;;;;3.73;77.27;100192.42;124608;1144;22699;-60
2021/01/02 09:45:52;;;;;;;14.27;9.10;;;;;;;3.81;76.45;100189.55;124503;1143;22724;-60
2021/01/02 09:48:19;;;;;;;14.30;8.65;;;;;;;3.85;76.41;100188.97;124667;1144;23347;-60
2021/01/02 09:50:46;;;;;;;15.50;9.23;;;;;;;3.90;76.39;100194.58;124474;1144;22798;-60
2021/01/02 09:53:13;;;;;;;16.83;9.17;;;;;;;3.95;76.38;100193.99;124641;1144;23901;-60
2021/01/02 09:55:40;;;;;;;17.40;10.60;;;;;;;4.00;75.89;100196.10;124399;1143;22880;-60
2021/01/02 09:58:09;;;;;;;15.85;8.85;;;;;;;4.03;75.55;100195.71;124610;1143;22682;-61
2021/01/02 10:00:37;;;;;;;15.95;8.40;;;;;;;4.06;75.52;100195.29;124433;1142;22862;-60
2021/01/02 10:03:06;;;;;;;14.05;8.30;;;;;;;4.09;75.41;100198.43;124594;1142;22701;-60
2021/01/02 10:05:42;;;;;;;15.85;7.70;;;;;;;4.12;75.33;100199.90;124437;1143;23338;-62
2021/01/02 10:08:09;;;;;;;13.40;7.83;;;;;;;4.17;75.68;100192.05;124624;1144;22772;-62
2021/01/02 10:10:36;;;;;;;14.50;8.60;;;;;;;4.22;75.95;100186.88;124417;1143;24234;-61
2021/01/02 10:13:03;;;;;;;14.55;8.45;;;;;;;4.26;75.62;100185.45;124704;1144;22707;-60
2021/01/02 10:15:31;;;;;;;15.07;9.17;;;;;;;4.31;75.52;100188.38;124524;1144;22748;-59
2021/01/02 10:17:59;;;;;;;14.03;8.83;;;;;;;4.34;75.53;100187.95;124578;1142;22689;-59
2021/01/02 10:20:26;;;;;;;17.17;9.57;;;;;;;4.38;75.08;100183.83;124333;1144;22784;-58
2021/01/02 10:22:53;;;;;;;16.07;9.13;;;;;;;4.42;74.65;100197.75;124732;1142;22686;-61
2021/01/02 10:25:20;;;;;;;16.00;9.35;;;;;;;4.44;74.73;100199.23;124611;1143;22679;-61
2021/01/02 10:27:47;;;;;;;16.03;9.10;;;;;;;4.46;75.22;100199.86;124543;1144;24384;-61
2021/01/02 10:33:19;;;;;;;17.15;9.20;;;;;;;4.53;74.34;100192.61;120049;1147;25686;-59
2021/01/02 10:35:46;;;;;;;14.55;9.05;;;;;;;4.56;74.12;100194.91;124270;1147;22769;-60
2021/01/02 10:38:14;;;;;;;12.37;7.37;;;;;;;4.59;74.38;100190.97;124149;1147;22687;-60
2021/01/02 10:40:41;;;;;;;13.30;8.60;;;;;;;4.62;74.07;100195.94;124222;1147;23421;-60
2021/01/02 10:43:08;;;;;;;15.30;9.13;;;;;;;4.63;73.92;100197.61;124146;1146;22774;-61
2021/01/02 10:45:36;;;;;;;15.95;9.40;;;;;;;4.66;74.17;100199.91;124333;1146;22676;-61
2021/01/02 10:48:03;;;;;;;18.10;10.25;;;;;;;4.69;74.27;100204.07;124138;1148;22707;-61
2021/01/02 10:50:31;;;;;;;16.67;10.50;;;;;;;4.68;73.55;100205.11;124236;1146;22692;-61
2021/01/02 10:52:58;;;;;;;16.37;10.07;;;;;;;4.71;73.94;100204.70;124084;1146;22754;-61
2021/01/02 10:55:26;;;;;;;19.50;11.05;;;;;;;4.72;73.82;100201.81;124210;1146;22689;-61
2021/01/02 10:57:54;;;;;;;18.15;10.45;;;;;;;4.74;74.02;100201.61;124191;1147;23518;-59
2021/01/02 11:00:22;;;;;;;17.00;10.25;;;;;;;4.75;73.58;100200.58;124197;1147;22680;-60
2021/01/02 11:02:50;;;;;;;18.60;10.80;;;;;;;4.74;73.42;100188.11;124141;1147;22718;-60
2021/01/02 11:05:17;;;;;;;15.35;10.10;;;;;;;4.78;73.43;100189.34;124241;1147;22698;-60
2021/01/02 11:07:44;;;;;;;17.90;9.50;;;;;;;4.81;73.70;100194.34;124037;1146;22698;-60
2021/01/02 11:10:12;;;;;;;16.20;9.55;;;;;;;4.84;73.23;100193.94;124403;1147;22678;-60
2021/01/02 11:12:43;;;;;;;14.95;8.90;;;;;;;4.86;73.90;100195.41;124176;1147;27624;-60
2021/01/02 11:15:11;;;;;;;18.47;11.33;;;;;;;4.89;73.65;100202.27;124242;1147;23533;-60
2021/01/02 11:17:39;;;;;;;20.65;10.95;;;;;;;4.91;73.07;100202.87;123978;1146;22666;-60
2021/01/02 11:20:08;;;;;;;16.60;9.95;;;;;;;4.92;73.25;100202.67;124110;1149;22695;-60
2021/01/02 11:22:36;;;;;;;14.90;10.25;;;;;;;4.93;73.02;100203.50;124198;1146;23662;-60
2021/01/02 11:25:03;;;;;;;17.95;11.15;;;;;;;4.94;72.77;100205.17;124186;1147;22702;-60
2021/01/02 11:27:31;;;;;;;16.93;9.13;;;;;;;4.94;72.62;100205.17;124189;1146;23168;-60
2021/01/02 11:30:01;;;;;;;22.37;11.80;;;;;;;4.96;72.64;100212.03;124192;1146;22701;-60
2021/01/02 11:32:28;;;;;;;16.20;10.55;;;;;;;4.97;72.55;100213.70;124134;1147;22749;-60
2021/01/02 11:34:56;;;;;;;18.17;10.07;;;;;;;4.97;72.46;100211.00;124248;1146;22764;-60
2021/01/02 11:37:23;;;;;;;17.63;11.20;;;;;;;4.96;72.55;100211.20;124295;1147;22672;-60
2021/01/02 11:39:50;;;;;;;20.30;11.73;;;;;;;4.95;72.40;100209.53;124146;1147;22798;-61
2021/01/02 11:42:18;;;;;;;20.73;11.53;;;;;;;4.94;72.94;100208.70;124171;1146;23258;-61
2021/01/02 11:44:45;;;;;;;20.50;12.15;;;;;;;4.96;72.92;100214.73;124133;1146;22677;-61
2021/01/02 11:47:13;;;;;;;16.10;10.60;;;;;;;4.97;72.71;100215.56;124206;1147;22695;-61
2021/01/02 11:49:40;;;;;;;17.65;11.05;;;;;;;4.99;72.50;100218.90;124150;1146;23722;-61
2021/01/02 11:52:07;;;;;;;20.85;10.60;;;;;;;4.99;72.55;100213.50;124307;1146;22696;-61
2021/01/02 11:54:35;;;;;;;19.70;10.70;;;;;;;5.02;72.29;100220.36;124046;1146;22746;-61
2021/01/02 11:57:04;;;;;;;18.10;10.05;;;;;;;5.01;72.67;100221.40;124269;1146;22672;-59
2021/01/02 11:59:31;;;;;;;19.75;10.85;;;;;;;5.03;72.30;100230.13;124019;1147;22672;-59
2021/01/02 12:02:00;;;;;;;21.60;12.25;;;;;;;5.02;72.04;100229.30;124154;1147;22700;-60
2021/01/02 12:04:28;;;;;;;25.27;14.77;;;;;;;5.03;72.86;100227.43;124096;1146;22660;-59
2021/01/02 12:06:56;;;;;;;23.90;13.13;;;;;;;5.03;73.08;100224.73;124237;1147;23260;-59
2021/01/02 12:09:24;;;;;;;19.97;12.37;;;;;;;5.02;72.98;100223.90;124204;1147;22684;-59
2021/01/02 12:11:52;;;;;;;20.53;11.27;;;;;;;5.01;72.31;100226.80;124028;1146;23965;-60
2021/01/02 12:14:24;;;;;;;21.70;12.05;;;;;;;5.00;72.68;100227.84;124270;1147;22768;-60
2021/01/02 12:16:52;;;;;;;22.35;11.35;;;;;;;5.00;72.39;100231.37;123869;1147;22763;-59
2021/01/02 12:19:25;;;;;;;21.40;11.00;;;;;;;4.96;72.50;100220.13;124113;1148;23277;-60
2021/01/02 12:21:55;;;;;;;20.50;11.60;;;;;;;5.01;72.62;100229.50;124142;1145;23485;-59
2021/01/02 12:24:23;;;;;;;22.40;11.93;;;;;;;5.00;72.70;100235.94;124427;1147;22674;-59
2021/01/02 12:26:53;;;;;;;23.60;12.45;;;;;;;5.02;72.57;100241.97;124060;1146;22665;-59
2021/01/02 12:29:21;;;;;;;25.55;12.40;;;;;;;5.00;71.73;100244.03;124207;1146;22684;-60
2021/01/02 12:31:51;;;;;;;23.23;12.83;;;;;;;4.99;72.23;100243.20;124046;1147;23476;-60
2021/01/02 12:34:24;;;;;;;25.73;11.97;;;;;;;5.00;72.35;100247.57;124283;1146;22687;-59
2021/01/02 12:36:51;;;;;;;19.15;11.75;;;;;;;4.99;72.45;100248.61;124245;1148;22717;-60
2021/01/02 12:39:24;;;;;;;18.27;11.03;;;;;;;4.99;72.24;100251.30;124215;1146;22717;-59
2021/01/02 12:41:52;;;;;;;20.10;11.85;;;;;;;4.97;72.00;100250.67;124193;1147;23540;-60
2021/01/02 12:44:22;;;;;;;20.95;12.80;;;;;;;4.94;72.18;100249.20;124255;1148;23548;-60
2021/01/02 12:46:52;;;;;;;21.65;12.45;;;;;;;4.90;71.98;100249.84;124126;1147;22685;-60
2021/01/02 12:49:21;;;;;;;23.20;13.45;;;;;;;4.88;72.11;100257.30;124334;1147;22760;-60
2021/01/02 12:51:52;;;;;;;19.90;12.35;;;;;;;4.85;72.42;100263.94;124105;1147;22788;-60
2021/01/02 12:54:20;;;;;;;17.13;10.37;;;;;;;4.84;71.91;100261.44;124157;1147;22660;-59
2021/01/02 12:56:48;;;;;;;18.70;12.10;;;;;;;4.82;72.32;100258.94;124144;1147;22701;-59
2021/01/02 12:59:19;;;;;;;17.60;11.40;;;;;;;4.80;72.21;100263.70;124144;1147;22704;-59
2021/01/02 13:01:47;;;;;;;15.30;10.00;;;;;;;4.80;72.40;100262.87;124153;1145;22690;-59
2021/01/02 13:04:14;;;;;;;19.27;10.30;;;;;;;4.81;72.80;100269.93;124265;1145;22699;-60
2021/01/02 13:06:55;;;;;;;14.45;10.20;;;;;;;4.79;72.10;100272.00;121188;1148;25960;-59
2021/01/02 13:09:23;;;;;;;21.77;13.07;;;;;;;4.79;72.86;100269.30;119981;1148;22946;-59
2021/01/02 13:11:53;;;;;;;22.07;12.70;;;;;;;4.78;72.88;100281.96;124270;1147;22727;-60
2021/01/02 13:14:22;;;;;;;25.40;14.57;;;;;;;4.74;72.67;100279.89;124256;1145;23546;-59
2021/01/02 13:16:50;;;;;;;23.43;13.23;;;;;;;4.71;72.06;100280.28;124174;1148;22731;-60
2021/01/02 13:19:19;;;;;;;23.15;12.85;;;;;;;4.68;72.75;100281.52;123927;1148;22709;-59
2021/01/02 13:21:59;;;;;;;21.20;12.50;;;;;;;4.66;72.92;100293.54;124341;1147;22721;-60
2021/01/02 13:24:27;;;;;;;24.20;12.53;;;;;;;4.61;72.74;100288.77;124145;1147;22716;-60
2021/01/02 13:26:57;;;;;;;23.90;14.30;;;;;;;4.60;73.11;100289.80;124284;1145;23290;-59
2021/01/02 13:29:26;;;;;;;23.90;13.20;;;;;;;4.56;72.86;100294.75;124161;1146;22795;-60
2021/01/02 13:31:54;;;;;;;21.13;10.83;;;;;;;4.52;73.04;100293.48;124314;1145;23363;-60
2021/01/02 13:34:22;;;;;;;20.60;11.70;;;;;;;4.47;73.21;100298.63;124066;1148;24638;-61
2021/01/02 13:36:50;;;;;;;28.87;13.00;;;;;;;4.47;73.61;100304.03;121113;1146;25957;-60
2021/01/02 13:39:24;;;;;;;28.90;14.83;;;;;;;4.45;73.66;100298.02;124103;1147;22696;-61
2021/01/02 13:42:08;;;;;;;29.53;15.03;;;;;;;4.43;74.14;100305.48;124205;1147;22710;-60
2021/01/02 13:44:36;;;;;;;27.10;14.65;;;;;;;4.42;73.90;100302.98;124085;1147;22738;-60
2021/01/02 13:47:05;;;;;;;31.97;16.30;;;;;;;4.38;74.67;100313.33;124285;1148;22672;-60
2021/01/02 13:49:33;;;;;;;29.50;13.70;;;;;;;4.33;73.72;100309.58;124128;1146;22664;-59
2021/01/02 13:52:00;;;;;;;30.97;16.03;;;;;;;4.26;73.79;100307.66;124318;1147;22674;-59
2021/01/02 13:54:27;;;;;;;33.80;17.25;;;;;;;4.22;74.38;100310.94;124294;1147;22677;-59
2021/01/02 13:56:55;;;;;;;29.15;15.65;;;;;;;4.16;74.10;100314.44;124405;1146;22648;-60
2021/01/02 13:59:24;;;;;;;28.10;13.23;;;;;;;4.12;74.68;100315.86;124228;1147;26413;-59
2021/01/02 14:01:52;;;;;;;25.20;13.20;;;;;;;4.09;74.63;100318.94;124285;1146;22771;-60
2021/01/02 14:04:19;;;;;;;29.00;14.33;;;;;;;4.07;74.62;100321.83;124200;1146;22691;-59
2021/01/02 14:06:47;;;;;;;29.50;15.37;;;;;;;4.04;75.00;100332.20;124354;1146;22739;-59
2021/01/02 14:09:15;;;;;;;29.03;17.10;;;;;;;4.03;75.53;100335.92;124076;1147;22780;-59
2021/01/02 14:11:42;;;;;;;51.70;27.30;;;;;;;4.00;75.20;100333.61;124384;1145;22772;-59
2021/01/02 14:14:10;;;;;;;47.93;27.30;;;;;;;3.99;75.62;100331.94;124396;1147;22693;-59
2021/01/02 14:16:53;;;;;;;33.40;19.77;;;;;;;3.94;75.14;100331.68;124288;1145;22714;-59
2021/01/02 14:19:20;;;;;;;31.53;17.33;;;;;;;3.90;75.31;100334.76;124336;1146;22690;-59
2021/01/02 14:21:50;;;;;;;33.25;17.90;;;;;;;3.87;75.76;100335.17;124291;1147;22676;-60
2021/01/02 14:24:18;;;;;;;27.17;15.80;;;;;;;3.83;75.47;100333.05;124360;1145;22653;-60
2021/01/02 14:26:45;;;;;;;26.65;16.25;;;;;;;3.77;75.17;100337.34;124161;1146;22657;-59
2021/01/02 14:29:13;;;;;;;25.70;13.30;;;;;;;3.72;75.90;100339.80;124346;1147;23471;-59
2021/01/02 14:31:42;;;;;;;23.35;12.40;;;;;;;3.67;76.09;100330.62;124096;1147;22746;-60
2021/01/02 14:34:14;;;;;;;23.83;13.63;;;;;;;3.63;76.39;100334.72;124299;1147;22773;-59
2021/01/02 14:36:53;;;;;;;33.50;17.80;;;;;;;3.61;77.01;100332.22;124050;1147;22688;-60
2021/01/02 14:39:22;;;;;;;27.30;15.10;;;;;;;3.59;77.07;100338.85;124310;1147;22695;-60
2021/01/02 14:41:49;;;;;;;29.40;14.90;;;;;;;3.58;77.05;100331.80;124096;1146;23993;-60
2021/01/02 14:44:17;;;;;;;26.10;14.97;;;;;;;3.55;77.21;100338.39;124452;1147;23290;-59
2021/01/02 14:46:44;;;;;;;25.90;14.00;;;;;;;3.51;76.95;100337.10;124090;1146;22798;-60
2021/01/02 14:49:12;;;;;;;23.80;13.25;;;;;;;3.46;77.04;100339.56;124308;1147;22708;-59
2021/01/02 14:51:49;;;;;;;29.17;15.03;;;;;;;3.43;77.13;100337.24;124131;1147;22689;-59
2021/01/02 14:54:20;;;;;;;22.10;12.80;;;;;;;3.40;76.84;100341.14;124316;1146;23494;-59
2021/01/02 14:56:51;;;;;;;24.20;14.65;;;;;;;3.36;76.56;100345.23;124200;1147;23527;-59
2021/01/02 14:59:19;;;;;;;21.70;14.27;;;;;;;3.33;77.12;100344.78;124368;1147;22747;-60
2021/01/02 15:01:47;;;;;;;22.60;13.70;;;;;;;3.29;76.89;100348.91;124236;1147;22690;-59
2021/01/02 15:04:14;;;;;;;36.70;21.60;;;;;;;3.25;77.81;100345.75;124310;1146;22751;-59
2021/01/02 15:06:46;;;;;;;28.85;17.65;;;;;;;3.23;77.81;100349.65;124111;1147;22723;-59
2021/01/02 15:09:14;;;;;;;34.43;17.83;;;;;;;3.19;77.43;100349.19;124360;1146;22697;-58
2021/01/02 15:11:41;;;;;;;32.57;16.67;;;;;;;3.16;77.67;100352.28;124197;1147;22770;-59
2021/01/02 15:14:09;;;;;;;34.60;17.05;;;;;;;3.14;77.92;100347.08;124280;1146;22693;-58
2021/01/02 15:16:36;;;;;;;30.63;16.47;;;;;;;3.12;77.44;100354.52;124276;1145;23368;-58
2021/01/02 15:19:04;;;;;;;26.70;15.80;;;;;;;3.10;77.71;100353.03;124195;1146;22734;-58
2021/01/02 15:21:32;;;;;;;34.07;18.93;;;;;;;3.09;78.08;100354.88;124293;1147;22665;-58
2021/01/02 15:23:59;;;;;;;30.35;16.80;;;;;;;3.08;77.85;100357.77;124147;1147;23588;-58
2021/01/02 15:26:28;;;;;;;26.57;16.47;;;;;;;3.07;78.26;100356.93;124236;1147;22665;-58
2021/01/02 15:28:56;;;;;;;28.20;15.65;;;;;;;3.03;77.73;100352.13;124140;1147;22700;-57
2021/01/02 15:31:24;;;;;;;36.90;19.65;;;;;;;3.01;77.82;100359.56;124406;1146;22762;-58
2021/01/02 15:33:52;;;;;;;36.75;21.00;;;;;;;3.01;77.51;100355.01;124092;1147;24009;-58
2021/01/02 15:36:31;;;;;;;42.10;24.50;;;;;;;2.98;78.01;100352.69;124252;1147;22704;-58
2021/01/02 15:38:59;;;;;;;32.43;15.73;;;;;;;2.96;78.15;100359.27;124113;1145;22772;-59
2021/01/02 15:41:28;;;;;;;26.30;15.50;;;;;;;2.94;78.16;100361.31;124378;1147;22670;-58
2021/01/02 15:43:55;;;;;;;35.15;19.60;;;;;;;2.93;77.71;100357.79;124172;1146;23623;-58
2021/01/02 15:46:24;;;;;;;42.77;23.63;;;;;;;2.90;77.93;100363.54;122178;1147;28319;-58
2021/01/02 15:48:51;;;;;;;46.13;23.70;;;;;;;2.88;78.21;100368.30;120003;1147;26414;-58
2021/01/02 15:51:37;;;;;;;44.90;24.20;;;;;;;2.83;78.23;100366.16;119887;1148;22938;-58
2021/01/02 15:54:05;;;;;;;43.73;22.43;;;;;;;2.77;78.22;100368.75;124049;1146;24163;-58
2021/01/02 15:56:32;;;;;;;44.23;23.33;;;;;;;2.65;78.49;100356.80;124234;1147;22793;-58
2021/01/02 15:59:00;;;;;;;47.80;23.40;;;;;;;2.68;77.49;100373.41;124127;1147;22691;-58
2021/01/02 16:01:27;;;;;;;42.30;22.25;;;;;;;2.66;78.54;100374.61;124345;1148;22656;-58
2021/01/02 16:03:55;;;;;;;40.90;20.27;;;;;;;2.65;78.15;100379.16;124115;1147;22774;-58
2021/01/02 16:06:24;;;;;;;33.35;19.20;;;;;;;2.64;78.89;100371.27;124423;1145;23695;-58
2021/01/02 16:08:52;;;;;;;29.60;17.00;;;;;;;2.66;78.98;100375.45;124038;1147;22728;-58
2021/01/02 16:11:31;;;;;;;33.23;17.33;;;;;;;2.68;79.09;100384.17;124280;1147;22738;-58
2021/01/02 16:13:58;;;;;;;32.17;16.50;;;;;;;2.67;79.06;100390.57;124271;1147;22698;-58
2021/01/02 16:16:26;;;;;;;33.35;16.80;;;;;;;2.68;79.29;100386.03;124287;1147;23141;-58
2021/01/02 16:18:53;;;;;;;28.40;17.60;;;;;;;2.66;78.92;100393.45;124407;1146;24222;-58
2021/01/02 16:21:26;;;;;;;37.03;19.07;;;;;;;2.65;79.22;100399.84;124242;1147;22684;-58
2021/01/02 16:23:53;;;;;;;34.07;19.93;;;;;;;2.64;79.34;100392.79;124237;1147;22694;-58
2021/01/02 16:26:34;;;;;;;32.77;17.90;;;;;;;2.61;79.73;100404.75;124082;1147;22719;-58
2021/01/02 16:29:02;;;;;;;31.73;18.83;;;;;;;2.59;79.37;100401.44;124235;1146;24005;-58
2021/01/02 16:31:49;;;;;;;34.47;18.70;;;;;;;2.57;79.35;100400.78;124188;1147;22679;-58
2021/01/02 16:34:23;;;;;;;33.55;17.40;;;;;;;2.56;78.79;100406.34;124213;1148;23392;-59
2021/01/02 16:36:52;;;;;;;27.57;16.47;;;;;;;2.55;79.26;100400.13;124023;1147;22764;-58
2021/01/02 16:39:19;;;;;;;32.40;15.03;;;;;;;2.53;80.04;100402.16;124130;1147;23703;-59
2021/01/02 16:41:47;;;;;;;24.60;14.87;;;;;;;2.54;80.14;100403.00;124097;1147;22665;-58
2021/01/02 16:44:15;;;;;;;25.87;16.20;;;;;;;2.53;79.33;100401.33;124213;1147;22689;-59
2021/01/02 16:46:42;;;;;;;26.63;17.33;;;;;;;2.53;79.97;100409.39;124048;1147;22718;-58
2021/01/02 16:49:10;;;;;;;30.63;17.37;;;;;;;2.52;80.05;100405.03;124373;1146;22762;-58
2021/01/02 16:51:37;;;;;;;28.15;17.25;;;;;;;2.52;80.29;100408.56;124078;1148;22671;-59
2021/01/02 16:54:07;;;;;;;27.05;16.50;;;;;;;2.52;79.77;100408.56;124386;1147;22722;-58
2021/01/02 16:56:34;;;;;;;27.70;17.30;;;;;;;2.53;80.42;100406.70;124133;1148;22695;-58
2021/01/02 16:59:01;;;;;;;31.97;19.63;;;;;;;2.54;79.67;100405.69;124283;1148;22688;-59
2021/01/02 17:01:29;;;;;;;37.30;20.67;;;;;;;2.54;80.11;100411.06;124180;1148;22700;-58
2021/01/02 17:04:07;;;;;;;30.07;17.63;;;;;;;2.53;80.18;100420.98;124181;1148;22705;-58
2021/01/02 17:06:34;;;;;;;28.90;18.30;;;;;;;2.53;79.60;100420.98;123998;1148;22672;-58
2021/01/02 17:09:03;;;;;;;28.83;18.13;;;;;;;2.55;79.80;100427.03;124217;1148;22683;-59
2021/01/02 17:11:41;;;;;;;23.67;15.83;;;;;;;2.56;79.71;100426.01;124004;1148;23279;-58
2021/01/02 17:14:10;;;;;;;25.10;15.67;;;;;;;2.57;80.46;100424.99;124280;1147;23503;-58
2021/01/02 17:16:39;;;;;;;26.33;15.60;;;;;;;2.59;79.69;100427.50;124048;1148;23483;-59
2021/01/02 17:19:08;;;;;;;23.77;15.03;;;;;;;2.59;80.39;100427.50;124409;1147;23370;-58
2021/01/02 17:21:38;;;;;;;27.45;17.00;;;;;;;2.58;79.68;100420.45;124248;1147;22696;-58
2021/01/02 17:24:09;;;;;;;24.90;17.57;;;;;;;2.58;80.26;100423.14;124168;1148;22712;-58
2021/01/02 17:26:38;;;;;;;24.45;15.75;;;;;;;2.49;79.67;100414.30;124179;1148;23410;-58
2021/01/02 17:29:07;;;;;;;22.80;15.60;;;;;;;2.55;80.50;100429.72;123988;1147;22678;-58
2021/01/02 17:31:37;;;;;;;25.10;14.50;;;;;;;2.55;79.64;100432.41;124106;1148;22725;-58
2021/01/02 17:34:06;;;;;;;23.97;15.67;;;;;;;2.56;80.66;100434.08;124090;1147;22818;-58
2021/01/02 17:36:34;;;;;;;27.30;14.55;;;;;;;2.59;79.74;100440.95;124189;1147;22674;-58
2021/01/02 17:39:03;;;;;;;23.80;15.25;;;;;;;2.60;79.93;100434.55;124231;1146;22791;-59
2021/01/02 17:41:31;;;;;;;25.10;16.15;;;;;;;2.58;80.12;100437.42;124191;1147;23591;-58
2021/01/02 17:43:58;;;;;;;31.20;17.95;;;;;;;2.57;79.74;100442.98;124047;1147;22665;-58
2021/01/02 17:46:36;;;;;;;35.40;20.50;;;;;;;2.55;79.43;100445.86;124226;1147;22675;-59
2021/01/02 17:49:08;;;;;;;39.33;24.10;;;;;;;2.53;79.40;100444.36;124244;1146;22706;-58
2021/01/02 17:51:36;;;;;;;34.25;21.70;;;;;;;2.49;79.28;100444.72;124339;1147;22751;-58
2021/01/02 17:54:04;;;;;;;32.47;18.97;;;;;;;2.47;79.81;100445.92;124187;1147;23541;-58
2021/01/02 17:56:31;;;;;;;27.40;18.75;;;;;;;2.43;79.76;100445.47;124233;1147;22765;-65
2021/01/02 17:58:59;;;;;;;32.57;19.00;;;;;;;2.42;79.84;100441.11;124138;1146;22680;-66
2021/01/02 18:01:27;;;;;;;26.30;16.27;;;;;;;2.43;79.50;100436.56;124265;1147;22775;-66
2021/01/02 18:03:55;;;;;;;29.00;16.75;;;;;;;2.41;79.67;100436.75;124111;1147;22694;-66
2021/01/02 18:06:26;;;;;;;27.90;15.60;;;;;;;2.40;79.83;100436.92;124370;1146;23436;-66
2021/01/02 18:08:53;;;;;;;28.60;16.80;;;;;;;2.41;80.14;100446.67;124296;1147;22695;-66
2021/01/02 18:11:31;;;;;;;29.00;16.30;;;;;;;2.40;80.59;100447.69;124327;1146;22747;-66
2021/01/02 18:13:59;;;;;;;30.55;17.35;;;;;;;2.39;80.07;100462.98;124208;1147;23220;-66
2021/01/02 18:16:27;;;;;;;30.67;16.17;;;;;;;2.38;79.55;100464.00;124373;1146;22781;-66
2021/01/02 18:18:54;;;;;;;27.00;16.90;;;;;;;2.35;80.14;100455.45;124145;1146;22726;-65
2021/01/02 18:21:22;;;;;;;29.50;17.03;;;;;;;2.37;80.05;100461.48;124431;1147;22856;-65
2021/01/02 18:23:49;;;;;;;31.23;19.07;;;;;;;2.34;79.74;100465.37;124280;1147;22699;-66
2021/01/02 18:26:19;;;;;;;32.23;17.73;;;;;;;2.32;79.76;100469.25;124196;1147;22702;-66
2021/01/02 18:28:46;;;;;;;32.95;18.10;;;;;;;2.27;79.24;100466.30;124221;1147;23355;-66
2021/01/02 18:31:17;;;;;;;29.20;16.50;;;;;;;2.25;80.20;100461.09;124253;1147;22659;-65
2021/01/02 18:33:45;;;;;;;26.85;16.35;;;;;;;2.26;80.39;100468.14;124358;1147;23503;-65